sensor_id;sensor_type;location;lat;lon;timestamp;P1;durP1;ratioP1;P2;durP2;ratioP2
59504;SDS011;45321;53.200;5.814;2024-01-10T00:01:58;14.02;;;8.73;;
59504;SDS011;45321;53.200;5.814;2024-01-10T00:04:24;11.73;;;9.05;;
59504;SDS011;45321;53.200;5.814;2024-01-10T00:06:50;11.45;;;9.38;;
59504;SDS011;45321;53.200;5.814;2024-01-10T00:09:15;13.65;;;9.57;;
59504;SDS011;45321;53.200;5.814;2024-01-10T00:11:41;13.85;;;9.80;;
59504;SDS011;45321;53.200;5.814;2024-01-10T00:14:07;12.15;;;9.68;;
59504;SDS011;45321;53.200;5.814;2024-01-10T00:16:33;14.73;;;10.63;;
59504;SDS011;45321;53.200;5.814;2024-01-10T00:18:58;14.13;;;10.23;;
59504;SDS011;45321;53.200;5.814;2024-01-10T00:21:24;12.43;;;10.30;;
59504;SDS011;45321;53.200;5.814;2024-01-10T00:23:50;15.00;;;11.15;;
59504;SDS011;45321;53.200;5.814;2024-01-10T00:26:15;15.18;;;11.45;;
59504;SDS011;45321;53.200;5.814;2024-01-10T00:28:42;17.20;;;11.00;;
59504;SDS011;45321;53.200;5.814;2024-01-10T00:31:07;13.73;;;11.27;;
59504;SDS011;45321;53.200;5.814;2024-01-10T00:33:33;15.13;;;11.90;;
59504;SDS011;45321;53.200;5.814;2024-01-10T00:35:59;15.20;;;11.50;;
59504;SDS011;45321;53.200;5.814;2024-01-10T00:38:25;14.10;;;11.45;;
59504;SDS011;45321;53.200;5.814;2024-01-10T00:40:51;14.98;;;12.07;;
59504;SDS011;45321;53.200;5.814;2024-01-10T00:43:17;14.05;;;10.68;;
59504;SDS011;45321;53.200;5.814;2024-01-10T00:45:43;16.15;;;12.65;;
59504;SDS011;45321;53.200;5.814;2024-01-10T00:48:09;16.48;;;12.18;;
59504;SDS011;45321;53.200;5.814;2024-01-10T00:50:34;15.57;;;11.23;;
59504;SDS011;45321;53.200;5.814;2024-01-10T00:53:00;16.52;;;11.75;;
59504;SDS011;45321;53.200;5.814;2024-01-10T00:55:26;19.13;;;13.02;;
59504;SDS011;45321;53.200;5.814;2024-01-10T00:57:51;15.70;;;12.50;;
59504;SDS011;45321;53.200;5.814;2024-01-10T01:00:17;18.05;;;12.40;;
59504;SDS011;45321;53.200;5.814;2024-01-10T01:02:43;17.13;;;12.93;;
59504;SDS011;45321;53.200;5.814;2024-01-10T01:05:09;17.05;;;13.60;;
59504;SDS011;45321;53.200;5.814;2024-01-10T01:07:35;16.73;;;13.10;;
59504;SDS011;45321;53.200;5.814;2024-01-10T01:10:01;16.70;;;12.75;;
59504;SDS011;45321;53.200;5.814;2024-01-10T01:12:28;19.30;;;14.23;;
59504;SDS011;45321;53.200;5.814;2024-01-10T01:14:54;21.75;;;14.48;;
59504;SDS011;45321;53.200;5.814;2024-01-10T01:17:19;16.63;;;13.30;;
59504;SDS011;45321;53.200;5.814;2024-01-10T01:19:45;18.83;;;13.75;;
59504;SDS011;45321;53.200;5.814;2024-01-10T01:22:11;18.33;;;14.60;;
59504;SDS011;45321;53.200;5.814;2024-01-10T01:24:36;19.75;;;14.13;;
59504;SDS011;45321;53.200;5.814;2024-01-10T01:27:02;19.58;;;14.18;;
59504;SDS011;45321;53.200;5.814;2024-01-10T01:29:28;19.98;;;15.30;;
59504;SDS011;45321;53.200;5.814;2024-01-10T01:31:54;18.50;;;14.45;;
59504;SDS011;45321;53.200;5.814;2024-01-10T01:34:20;17.92;;;14.18;;
59504;SDS011;45321;53.200;5.814;2024-01-10T01:36:46;20.27;;;14.95;;
59504;SDS011;45321;53.200;5.814;2024-01-10T01:39:12;20.90;;;15.00;;
59504;SDS011;45321;53.200;5.814;2024-01-10T01:41:40;20.92;;;14.48;;
59504;SDS011;45321;53.200;5.814;2024-01-10T01:44:06;22.13;;;14.57;;
59504;SDS011;45321;53.200;5.814;2024-01-10T01:46:32;21.50;;;15.38;;
59504;SDS011;45321;53.200;5.814;2024-01-10T01:48:58;20.98;;;15.18;;
59504;SDS011;45321;53.200;5.814;2024-01-10T01:51:24;19.40;;;14.18;;
59504;SDS011;45321;53.200;5.814;2024-01-10T01:53:53;20.95;;;14.50;;
59504;SDS011;45321;53.200;5.814;2024-01-10T01:56:19;21.40;;;15.90;;
59504;SDS011;45321;53.200;5.814;2024-01-10T01:58:45;20.02;;;15.40;;
59504;SDS011;45321;53.200;5.814;2024-01-10T02:01:12;21.40;;;16.50;;
59504;SDS011;45321;53.200;5.814;2024-01-10T02:03:39;23.17;;;17.17;;
59504;SDS011;45321;53.200;5.814;2024-01-10T02:06:05;23.67;;;17.83;;
59504;SDS011;45321;53.200;5.814;2024-01-10T02:08:34;24.42;;;18.27;;
59504;SDS011;45321;53.200;5.814;2024-01-10T02:11:01;23.98;;;18.17;;
59504;SDS011;45321;53.200;5.814;2024-01-10T02:13:28;25.15;;;18.60;;
59504;SDS011;45321;53.200;5.814;2024-01-10T02:15:55;26.13;;;19.02;;
59504;SDS011;45321;53.200;5.814;2024-01-10T02:18:21;26.40;;;18.92;;
59504;SDS011;45321;53.200;5.814;2024-01-10T02:20:47;24.20;;;17.88;;
59504;SDS011;45321;53.200;5.814;2024-01-10T02:23:13;24.10;;;18.42;;
59504;SDS011;45321;53.200;5.814;2024-01-10T02:25:39;32.15;;;21.25;;
59504;SDS011;45321;53.200;5.814;2024-01-10T02:28:06;28.92;;;20.73;;
59504;SDS011;45321;53.200;5.814;2024-01-10T02:30:32;28.10;;;20.13;;
59504;SDS011;45321;53.200;5.814;2024-01-10T02:32:58;24.70;;;18.73;;
59504;SDS011;45321;53.200;5.814;2024-01-10T02:35:24;24.45;;;18.85;;
59504;SDS011;45321;53.200;5.814;2024-01-10T02:37:49;24.20;;;18.77;;
59504;SDS011;45321;53.200;5.814;2024-01-10T02:40:16;24.75;;;19.17;;
59504;SDS011;45321;53.200;5.814;2024-01-10T02:42:42;24.58;;;18.30;;
59504;SDS011;45321;53.200;5.814;2024-01-10T02:45:08;27.15;;;16.70;;
59504;SDS011;45321;53.200;5.814;2024-01-10T02:47:35;22.95;;;17.60;;
59504;SDS011;45321;53.200;5.814;2024-01-10T02:50:02;21.45;;;17.33;;
59504;SDS011;45321;53.200;5.814;2024-01-10T02:52:28;25.60;;;16.85;;
59504;SDS011;45321;53.200;5.814;2024-01-10T02:54:54;21.67;;;16.42;;
59504;SDS011;45321;53.200;5.814;2024-01-10T02:57:20;22.73;;;17.88;;
59504;SDS011;45321;53.200;5.814;2024-01-10T02:59:46;22.52;;;17.48;;
59504;SDS011;45321;53.200;5.814;2024-01-10T03:02:11;23.60;;;17.10;;
59504;SDS011;45321;53.200;5.814;2024-01-10T03:04:37;23.10;;;17.30;;
59504;SDS011;45321;53.200;5.814;2024-01-10T03:07:03;21.08;;;16.77;;
59504;SDS011;45321;53.200;5.814;2024-01-10T03:09:28;21.98;;;16.88;;
59504;SDS011;45321;53.200;5.814;2024-01-10T03:11:54;23.85;;;16.63;;
59504;SDS011;45321;53.200;5.814;2024-01-10T03:14:20;23.35;;;17.77;;
59504;SDS011;45321;53.200;5.814;2024-01-10T03:16:47;22.30;;;16.80;;
59504;SDS011;45321;53.200;5.814;2024-01-10T03:19:13;25.17;;;19.02;;
59504;SDS011;45321;53.200;5.814;2024-01-10T03:21:39;24.67;;;17.70;;
59504;SDS011;45321;53.200;5.814;2024-01-10T03:24:04;24.05;;;17.67;;
59504;SDS011;45321;53.200;5.814;2024-01-10T03:26:30;22.70;;;16.25;;
59504;SDS011;45321;53.200;5.814;2024-01-10T03:28:56;20.70;;;16.15;;
59504;SDS011;45321;53.200;5.814;2024-01-10T03:31:22;21.70;;;17.38;;
59504;SDS011;45321;53.200;5.814;2024-01-10T03:33:48;21.52;;;15.70;;
59504;SDS011;45321;53.200;5.814;2024-01-10T03:36:16;21.92;;;17.05;;
59504;SDS011;45321;53.200;5.814;2024-01-10T03:38:42;22.90;;;17.50;;
59504;SDS011;45321;53.200;5.814;2024-01-10T03:41:16;23.58;;;17.17;;
59504;SDS011;45321;53.200;5.814;2024-01-10T03:43:42;22.98;;;17.20;;
59504;SDS011;45321;53.200;5.814;2024-01-10T03:46:09;22.55;;;17.13;;
59504;SDS011;45321;53.200;5.814;2024-01-10T03:48:35;23.40;;;16.92;;
59504;SDS011;45321;53.200;5.814;2024-01-10T03:51:02;22.95;;;17.75;;
59504;SDS011;45321;53.200;5.814;2024-01-10T03:53:28;24.65;;;18.30;;
59504;SDS011;45321;53.200;5.814;2024-01-10T03:55:54;22.85;;;17.60;;
59504;SDS011;45321;53.200;5.814;2024-01-10T03:58:20;24.42;;;17.77;;
59504;SDS011;45321;53.200;5.814;2024-01-10T04:00:45;25.55;;;17.30;;
59504;SDS011;45321;53.200;5.814;2024-01-10T04:03:11;26.05;;;17.65;;
59504;SDS011;45321;53.200;5.814;2024-01-10T04:05:37;24.33;;;17.10;;
59504;SDS011;45321;53.200;5.814;2024-01-10T04:08:04;24.58;;;17.70;;
59504;SDS011;45321;53.200;5.814;2024-01-10T04:10:30;26.33;;;18.25;;
59504;SDS011;45321;53.200;5.814;2024-01-10T04:12:56;26.42;;;18.23;;
59504;SDS011;45321;53.200;5.814;2024-01-10T04:15:22;28.15;;;19.55;;
59504;SDS011;45321;53.200;5.814;2024-01-10T04:17:47;25.05;;;19.02;;
59504;SDS011;45321;53.200;5.814;2024-01-10T04:20:13;30.45;;;19.02;;
59504;SDS011;45321;53.200;5.814;2024-01-10T04:22:39;24.80;;;17.58;;
59504;SDS011;45321;53.200;5.814;2024-01-10T04:25:08;21.25;;;15.52;;
59504;SDS011;45321;53.200;5.814;2024-01-10T04:27:34;20.95;;;14.80;;
59504;SDS011;45321;53.200;5.814;2024-01-10T04:29:59;20.65;;;15.00;;
59504;SDS011;45321;53.200;5.814;2024-01-10T04:32:25;19.40;;;14.98;;
59504;SDS011;45321;53.200;5.814;2024-01-10T04:34:51;18.55;;;13.80;;
59504;SDS011;45321;53.200;5.814;2024-01-10T04:37:17;19.33;;;13.55;;
59504;SDS011;45321;53.200;5.814;2024-01-10T04:39:43;19.02;;;13.75;;
59504;SDS011;45321;53.200;5.814;2024-01-10T04:42:12;19.55;;;14.15;;
59504;SDS011;45321;53.200;5.814;2024-01-10T04:44:38;20.60;;;14.77;;
59504;SDS011;45321;53.200;5.814;2024-01-10T04:47:04;17.75;;;14.20;;
59504;SDS011;45321;53.200;5.814;2024-01-10T04:49:30;20.67;;;14.73;;
59504;SDS011;45321;53.200;5.814;2024-01-10T04:51:56;22.02;;;16.52;;
59504;SDS011;45321;53.200;5.814;2024-01-10T04:54:22;20.95;;;14.02;;
59504;SDS011;45321;53.200;5.814;2024-01-10T04:56:48;19.10;;;13.43;;
59504;SDS011;45321;53.200;5.814;2024-01-10T04:59:14;24.35;;;15.00;;
59504;SDS011;45321;53.200;5.814;2024-01-10T05:01:39;21.95;;;14.20;;
59504;SDS011;45321;53.200;5.814;2024-01-10T05:04:05;24.17;;;15.20;;
59504;SDS011;45321;53.200;5.814;2024-01-10T05:06:31;25.40;;;17.25;;
59504;SDS011;45321;53.200;5.814;2024-01-10T05:08:57;21.50;;;15.90;;
59504;SDS011;45321;53.200;5.814;2024-01-10T05:11:26;21.77;;;14.48;;
59504;SDS011;45321;53.200;5.814;2024-01-10T05:13:52;19.25;;;13.52;;
59504;SDS011;45321;53.200;5.814;2024-01-10T05:16:17;23.95;;;15.80;;
59504;SDS011;45321;53.200;5.814;2024-01-10T05:18:43;18.80;;;14.18;;
59504;SDS011;45321;53.200;5.814;2024-01-10T05:21:09;19.90;;;14.07;;
59504;SDS011;45321;53.200;5.814;2024-01-10T05:23:35;19.95;;;14.10;;
59504;SDS011;45321;53.200;5.814;2024-01-10T05:26:01;17.38;;;12.70;;
59504;SDS011;45321;53.200;5.814;2024-01-10T05:28:27;18.88;;;13.68;;
59504;SDS011;45321;53.200;5.814;2024-01-10T05:30:53;20.67;;;14.57;;
59504;SDS011;45321;53.200;5.814;2024-01-10T05:33:19;21.85;;;14.35;;
59504;SDS011;45321;53.200;5.814;2024-01-10T05:35:45;25.38;;;15.77;;
59504;SDS011;45321;53.200;5.814;2024-01-10T05:38:11;22.83;;;16.02;;
59504;SDS011;45321;53.200;5.814;2024-01-10T05:40:36;21.38;;;15.90;;
59504;SDS011;45321;53.200;5.814;2024-01-10T05:43:02;23.75;;;16.00;;
59504;SDS011;45321;53.200;5.814;2024-01-10T05:45:28;24.42;;;16.80;;
59504;SDS011;45321;53.200;5.814;2024-01-10T05:47:54;22.33;;;15.93;;
59504;SDS011;45321;53.200;5.814;2024-01-10T05:50:20;25.92;;;15.80;;
59504;SDS011;45321;53.200;5.814;2024-01-10T05:52:46;22.75;;;16.02;;
59504;SDS011;45321;53.200;5.814;2024-01-10T05:55:12;19.33;;;14.68;;
59504;SDS011;45321;53.200;5.814;2024-01-10T05:57:38;22.48;;;15.82;;
59504;SDS011;45321;53.200;5.814;2024-01-10T06:00:04;24.73;;;16.63;;
59504;SDS011;45321;53.200;5.814;2024-01-10T06:02:40;22.75;;;16.13;;
59504;SDS011;45321;53.200;5.814;2024-01-10T06:05:07;22.80;;;16.35;;
59504;SDS011;45321;53.200;5.814;2024-01-10T06:07:34;25.10;;;16.98;;
59504;SDS011;45321;53.200;5.814;2024-01-10T06:10:00;27.25;;;18.85;;
59504;SDS011;45321;53.200;5.814;2024-01-10T06:12:26;30.10;;;19.58;;
59504;SDS011;45321;53.200;5.814;2024-01-10T06:14:53;25.35;;;17.98;;
59504;SDS011;45321;53.200;5.814;2024-01-10T06:17:19;23.20;;;15.98;;
59504;SDS011;45321;53.200;5.814;2024-01-10T06:19:44;22.35;;;16.58;;
59504;SDS011;45321;53.200;5.814;2024-01-10T06:22:10;21.25;;;15.90;;
59504;SDS011;45321;53.200;5.814;2024-01-10T06:24:38;20.58;;;16.42;;
59504;SDS011;45321;53.200;5.814;2024-01-10T06:27:06;23.42;;;16.67;;
59504;SDS011;45321;53.200;5.814;2024-01-10T06:29:32;23.75;;;16.52;;
59504;SDS011;45321;53.200;5.814;2024-01-10T06:31:58;20.80;;;15.32;;
59504;SDS011;45321;53.200;5.814;2024-01-10T06:34:26;23.42;;;16.13;;
59504;SDS011;45321;53.200;5.814;2024-01-10T06:36:52;21.98;;;16.15;;
59504;SDS011;45321;53.200;5.814;2024-01-10T06:39:18;21.15;;;16.23;;
59504;SDS011;45321;53.200;5.814;2024-01-10T06:41:46;22.25;;;16.13;;
59504;SDS011;45321;53.200;5.814;2024-01-10T06:44:12;21.92;;;16.48;;
59504;SDS011;45321;53.200;5.814;2024-01-10T06:46:38;23.00;;;16.60;;
59504;SDS011;45321;53.200;5.814;2024-01-10T06:49:04;23.40;;;17.30;;
59504;SDS011;45321;53.200;5.814;2024-01-10T06:51:32;24.42;;;17.20;;
59504;SDS011;45321;53.200;5.814;2024-01-10T06:53:58;23.52;;;17.08;;
59504;SDS011;45321;53.200;5.814;2024-01-10T06:56:29;21.27;;;17.15;;
59504;SDS011;45321;53.200;5.814;2024-01-10T06:58:55;21.58;;;16.17;;
59504;SDS011;45321;53.200;5.814;2024-01-10T07:01:21;24.95;;;17.23;;
59504;SDS011;45321;53.200;5.814;2024-01-10T07:03:47;23.25;;;18.13;;
59504;SDS011;45321;53.200;5.814;2024-01-10T07:06:13;23.70;;;18.33;;
59504;SDS011;45321;53.200;5.814;2024-01-10T07:08:41;27.75;;;19.83;;
59504;SDS011;45321;53.200;5.814;2024-01-10T07:11:09;23.15;;;18.00;;
59504;SDS011;45321;53.200;5.814;2024-01-10T07:13:36;26.70;;;19.23;;
59504;SDS011;45321;53.200;5.814;2024-01-10T07:16:02;24.95;;;19.20;;
59504;SDS011;45321;53.200;5.814;2024-01-10T07:18:28;26.70;;;18.73;;
59504;SDS011;45321;53.200;5.814;2024-01-10T07:20:54;25.15;;;19.20;;
59504;SDS011;45321;53.200;5.814;2024-01-10T07:23:20;26.35;;;19.70;;
59504;SDS011;45321;53.200;5.814;2024-01-10T07:25:46;23.40;;;17.63;;
59504;SDS011;45321;53.200;5.814;2024-01-10T07:28:11;26.25;;;18.25;;
59504;SDS011;45321;53.200;5.814;2024-01-10T07:30:37;25.77;;;18.20;;
59504;SDS011;45321;53.200;5.814;2024-01-10T07:33:03;25.60;;;18.27;;
59504;SDS011;45321;53.200;5.814;2024-01-10T07:35:29;24.45;;;17.60;;
59504;SDS011;45321;53.200;5.814;2024-01-10T07:37:55;24.73;;;18.13;;
59504;SDS011;45321;53.200;5.814;2024-01-10T07:40:21;25.60;;;18.17;;
59504;SDS011;45321;53.200;5.814;2024-01-10T07:42:47;24.17;;;18.08;;
59504;SDS011;45321;53.200;5.814;2024-01-10T07:45:13;25.83;;;18.52;;
59504;SDS011;45321;53.200;5.814;2024-01-10T07:47:39;28.95;;;18.35;;
59504;SDS011;45321;53.200;5.814;2024-01-10T07:50:08;24.55;;;18.92;;
59504;SDS011;45321;53.200;5.814;2024-01-10T07:52:34;30.85;;;20.75;;
59504;SDS011;45321;53.200;5.814;2024-01-10T07:55:00;27.38;;;18.85;;
59504;SDS011;45321;53.200;5.814;2024-01-10T07:57:29;25.90;;;19.52;;
59504;SDS011;45321;53.200;5.814;2024-01-10T07:59:55;25.35;;;17.35;;
59504;SDS011;45321;53.200;5.814;2024-01-10T08:02:20;26.98;;;18.48;;
59504;SDS011;45321;53.200;5.814;2024-01-10T08:04:46;23.52;;;16.63;;
59504;SDS011;45321;53.200;5.814;2024-01-10T08:07:12;24.38;;;18.58;;
59504;SDS011;45321;53.200;5.814;2024-01-10T08:09:38;25.35;;;17.77;;
59504;SDS011;45321;53.200;5.814;2024-01-10T08:12:04;24.13;;;17.73;;
59504;SDS011;45321;53.200;5.814;2024-01-10T08:14:30;23.02;;;16.58;;
59504;SDS011;45321;53.200;5.814;2024-01-10T08:16:55;22.33;;;16.90;;
59504;SDS011;45321;53.200;5.814;2024-01-10T08:19:28;21.55;;;16.60;;
59504;SDS011;45321;53.200;5.814;2024-01-10T08:21:53;21.70;;;16.63;;
59504;SDS011;45321;53.200;5.814;2024-01-10T08:24:20;21.58;;;17.13;;
59504;SDS011;45321;53.200;5.814;2024-01-10T08:26:46;23.77;;;17.17;;
59504;SDS011;45321;53.200;5.814;2024-01-10T08:29:17;21.98;;;16.05;;
59504;SDS011;45321;53.200;5.814;2024-01-10T08:31:44;22.75;;;16.38;;
59504;SDS011;45321;53.200;5.814;2024-01-10T08:34:22;21.27;;;15.23;;
59504;SDS011;45321;53.200;5.814;2024-01-10T08:36:52;19.67;;;15.77;;
59504;SDS011;45321;53.200;5.814;2024-01-10T08:39:18;19.52;;;14.48;;
59504;SDS011;45321;53.200;5.814;2024-01-10T08:41:44;21.17;;;15.30;;
59504;SDS011;45321;53.200;5.814;2024-01-10T08:44:10;22.80;;;15.25;;
59504;SDS011;45321;53.200;5.814;2024-01-10T08:46:36;19.77;;;14.63;;
59504;SDS011;45321;53.200;5.814;2024-01-10T08:49:02;19.13;;;14.05;;
59504;SDS011;45321;53.200;5.814;2024-01-10T08:51:28;17.88;;;13.57;;
59504;SDS011;45321;53.200;5.814;2024-01-10T08:53:54;20.65;;;14.60;;
59504;SDS011;45321;53.200;5.814;2024-01-10T08:56:21;18.60;;;13.73;;
59504;SDS011;45321;53.200;5.814;2024-01-10T08:58:47;18.73;;;14.52;;
59504;SDS011;45321;53.200;5.814;2024-01-10T09:01:13;16.67;;;12.50;;
59504;SDS011;45321;53.200;5.814;2024-01-10T09:03:39;18.67;;;13.13;;
59504;SDS011;45321;53.200;5.814;2024-01-10T09:06:05;17.08;;;12.32;;
59504;SDS011;45321;53.200;5.814;2024-01-10T09:08:32;15.27;;;11.88;;
59504;SDS011;45321;53.200;5.814;2024-01-10T09:10:59;18.17;;;13.05;;
59504;SDS011;45321;53.200;5.814;2024-01-10T09:13:25;18.50;;;13.32;;
59504;SDS011;45321;53.200;5.814;2024-01-10T09:15:51;15.90;;;11.63;;
59504;SDS011;45321;53.200;5.814;2024-01-10T09:18:16;17.60;;;11.95;;
59504;SDS011;45321;53.200;5.814;2024-01-10T09:20:42;15.80;;;11.55;;
59504;SDS011;45321;53.200;5.814;2024-01-10T09:23:09;20.20;;;13.60;;
59504;SDS011;45321;53.200;5.814;2024-01-10T09:25:36;18.63;;;12.48;;
59504;SDS011;45321;53.200;5.814;2024-01-10T09:28:01;17.27;;;12.45;;
59504;SDS011;45321;53.200;5.814;2024-01-10T09:30:29;16.92;;;12.13;;
59504;SDS011;45321;53.200;5.814;2024-01-10T09:32:55;17.50;;;10.95;;
59504;SDS011;45321;53.200;5.814;2024-01-10T09:35:21;16.60;;;10.82;;
59504;SDS011;45321;53.200;5.814;2024-01-10T09:37:47;15.82;;;10.85;;
59504;SDS011;45321;53.200;5.814;2024-01-10T09:40:15;16.95;;;11.43;;
59504;SDS011;45321;53.200;5.814;2024-01-10T09:42:43;16.08;;;10.85;;
59504;SDS011;45321;53.200;5.814;2024-01-10T09:45:09;16.73;;;11.35;;
59504;SDS011;45321;53.200;5.814;2024-01-10T09:47:38;16.50;;;10.95;;
59504;SDS011;45321;53.200;5.814;2024-01-10T09:50:05;20.95;;;13.32;;
59504;SDS011;45321;53.200;5.814;2024-01-10T09:52:34;17.15;;;12.07;;
59504;SDS011;45321;53.200;5.814;2024-01-10T09:55:07;15.63;;;10.32;;
59504;SDS011;45321;53.200;5.814;2024-01-10T09:57:35;21.10;;;13.65;;
59504;SDS011;45321;53.200;5.814;2024-01-10T10:00:01;19.88;;;11.95;;
59504;SDS011;45321;53.200;5.814;2024-01-10T10:02:30;18.52;;;10.60;;
59504;SDS011;45321;53.200;5.814;2024-01-10T10:05:07;19.35;;;10.95;;
59504;SDS011;45321;53.200;5.814;2024-01-10T10:07:48;20.88;;;12.15;;
59504;SDS011;45321;53.200;5.814;2024-01-10T10:10:15;19.42;;;11.88;;
59504;SDS011;45321;53.200;5.814;2024-01-10T10:12:42;21.98;;;12.13;;
59504;SDS011;45321;53.200;5.814;2024-01-10T10:15:16;20.67;;;10.60;;
59504;SDS011;45321;53.200;5.814;2024-01-10T10:17:44;19.63;;;11.50;;
59504;SDS011;45321;53.200;5.814;2024-01-10T10:20:20;20.55;;;12.35;;
59504;SDS011;45321;53.200;5.814;2024-01-10T10:22:57;16.23;;;9.57;;
59504;SDS011;45321;53.200;5.814;2024-01-10T10:25:44;15.85;;;9.38;;
59504;SDS011;45321;53.200;5.814;2024-01-10T10:28:13;19.20;;;10.50;;
59504;SDS011;45321;53.200;5.814;2024-01-10T10:30:40;22.67;;;12.15;;
59504;SDS011;45321;53.200;5.814;2024-01-10T10:33:08;23.90;;;12.95;;
59504;SDS011;45321;53.200;5.814;2024-01-10T10:35:34;23.70;;;13.55;;
59504;SDS011;45321;53.200;5.814;2024-01-10T10:38:00;28.50;;;14.63;;
59504;SDS011;45321;53.200;5.814;2024-01-10T10:40:26;17.13;;;9.70;;
59504;SDS011;45321;53.200;5.814;2024-01-10T10:42:55;16.20;;;10.00;;
59504;SDS011;45321;53.200;5.814;2024-01-10T10:45:24;19.40;;;9.75;;
59504;SDS011;45321;53.200;5.814;2024-01-10T10:48:01;19.00;;;9.32;;
59504;SDS011;45321;53.200;5.814;2024-01-10T10:50:33;22.10;;;11.57;;
59504;SDS011;45321;53.200;5.814;2024-01-10T10:53:00;20.67;;;10.50;;
59504;SDS011;45321;53.200;5.814;2024-01-10T10:55:28;23.73;;;12.05;;
59504;SDS011;45321;53.200;5.814;2024-01-10T10:57:55;22.58;;;12.50;;
59504;SDS011;45321;53.200;5.814;2024-01-10T11:00:22;20.15;;;10.52;;
59504;SDS011;45321;53.200;5.814;2024-01-10T11:02:55;20.40;;;11.25;;
59504;SDS011;45321;53.200;5.814;2024-01-10T11:05:21;24.10;;;13.73;;
59504;SDS011;45321;53.200;5.814;2024-01-10T11:07:47;23.92;;;12.05;;
59504;SDS011;45321;53.200;5.814;2024-01-10T11:23:50;19.52;;;10.57;;
59504;SDS011;45321;53.200;5.814;2024-01-10T11:26:19;23.23;;;12.80;;
59504;SDS011;45321;53.200;5.814;2024-01-10T11:28:45;27.15;;;15.00;;
59504;SDS011;45321;53.200;5.814;2024-01-10T11:31:12;22.70;;;12.25;;
59504;SDS011;45321;53.200;5.814;2024-01-10T11:33:40;23.23;;;12.57;;
59504;SDS011;45321;53.200;5.814;2024-01-10T11:36:18;23.80;;;12.88;;
59504;SDS011;45321;53.200;5.814;2024-01-10T11:38:48;26.33;;;14.48;;
59504;SDS011;45321;53.200;5.814;2024-01-10T11:46:43;19.83;;;10.10;;
59504;SDS011;45321;53.200;5.814;2024-01-10T11:49:12;17.15;;;9.77;;
59504;SDS011;45321;53.200;5.814;2024-01-10T11:51:44;18.42;;;10.02;;
59504;SDS011;45321;53.200;5.814;2024-01-10T11:54:10;18.25;;;10.13;;
59504;SDS011;45321;53.200;5.814;2024-01-10T11:56:40;15.60;;;9.32;;
59504;SDS011;45321;53.200;5.814;2024-01-10T11:59:08;19.98;;;11.02;;
59504;SDS011;45321;53.200;5.814;2024-01-10T12:01:40;20.85;;;10.38;;
59504;SDS011;45321;53.200;5.814;2024-01-10T12:04:06;16.85;;;9.80;;
59504;SDS011;45321;53.200;5.814;2024-01-10T12:06:34;15.50;;;9.07;;
59504;SDS011;45321;53.200;5.814;2024-01-10T12:09:03;13.57;;;8.02;;
59504;SDS011;45321;53.200;5.814;2024-01-10T12:11:37;14.73;;;8.20;;
59504;SDS011;45321;53.200;5.814;2024-01-10T12:14:09;14.88;;;8.15;;
59504;SDS011;45321;53.200;5.814;2024-01-10T12:16:35;13.98;;;7.30;;
59504;SDS011;45321;53.200;5.814;2024-01-10T12:19:01;15.85;;;8.48;;
59504;SDS011;45321;53.200;5.814;2024-01-10T12:21:28;17.58;;;9.40;;
59504;SDS011;45321;53.200;5.814;2024-01-10T12:23:55;22.85;;;10.85;;
59504;SDS011;45321;53.200;5.814;2024-01-10T12:26:21;19.40;;;9.40;;
59504;SDS011;45321;53.200;5.814;2024-01-10T12:28:53;17.95;;;9.05;;
59504;SDS011;45321;53.200;5.814;2024-01-10T12:31:20;15.98;;;8.82;;
59504;SDS011;45321;53.200;5.814;2024-01-10T12:33:48;15.25;;;9.38;;
59504;SDS011;45321;53.200;5.814;2024-01-10T12:36:14;19.25;;;10.75;;
59504;SDS011;45321;53.200;5.814;2024-01-10T12:38:42;16.63;;;8.90;;
59504;SDS011;45321;53.200;5.814;2024-01-10T12:41:09;16.17;;;9.60;;
59504;SDS011;45321;53.200;5.814;2024-01-10T12:43:36;23.15;;;12.98;;
59504;SDS011;45321;53.200;5.814;2024-01-10T12:48:32;17.75;;;9.23;;
59504;SDS011;45321;53.200;5.814;2024-01-10T12:51:06;18.55;;;10.18;;
59504;SDS011;45321;53.200;5.814;2024-01-10T12:53:40;19.85;;;10.77;;
59504;SDS011;45321;53.200;5.814;2024-01-10T12:56:07;17.98;;;9.90;;
59504;SDS011;45321;53.200;5.814;2024-01-10T12:58:35;20.67;;;11.13;;
59504;SDS011;45321;53.200;5.814;2024-01-10T13:01:02;15.88;;;9.88;;
59504;SDS011;45321;53.200;5.814;2024-01-10T13:03:28;16.80;;;9.45;;
59504;SDS011;45321;53.200;5.814;2024-01-10T13:05:55;19.20;;;9.80;;
59504;SDS011;45321;53.200;5.814;2024-01-10T13:08:21;16.60;;;9.55;;
59504;SDS011;45321;53.200;5.814;2024-01-10T13:10:47;19.90;;;9.65;;
59504;SDS011;45321;53.200;5.814;2024-01-10T13:13:13;17.02;;;9.43;;
59504;SDS011;45321;53.200;5.814;2024-01-10T13:15:40;16.48;;;10.32;;
59504;SDS011;45321;53.200;5.814;2024-01-10T13:18:07;13.68;;;8.38;;
59504;SDS011;45321;53.200;5.814;2024-01-10T13:20:35;17.88;;;8.75;;
59504;SDS011;45321;53.200;5.814;2024-01-10T13:23:01;15.68;;;9.00;;
59504;SDS011;45321;53.200;5.814;2024-01-10T13:25:27;13.77;;;8.48;;
59504;SDS011;45321;53.200;5.814;2024-01-10T13:27:53;15.63;;;8.48;;
59504;SDS011;45321;53.200;5.814;2024-01-10T13:30:19;14.38;;;8.00;;
59504;SDS011;45321;53.200;5.814;2024-01-10T13:32:45;14.20;;;7.80;;
59504;SDS011;45321;53.200;5.814;2024-01-10T13:35:12;12.93;;;7.72;;
59504;SDS011;45321;53.200;5.814;2024-01-10T13:37:39;17.30;;;8.82;;
59504;SDS011;45321;53.200;5.814;2024-01-10T13:40:08;14.60;;;7.90;;
59504;SDS011;45321;53.200;5.814;2024-01-10T13:42:37;16.10;;;8.10;;
59504;SDS011;45321;53.200;5.814;2024-01-10T13:45:04;15.23;;;8.63;;
59504;SDS011;45321;53.200;5.814;2024-01-10T13:47:31;18.77;;;9.20;;
59504;SDS011;45321;53.200;5.814;2024-01-10T13:49:59;14.20;;;8.40;;
59504;SDS011;45321;53.200;5.814;2024-01-10T13:52:25;13.60;;;8.38;;
59504;SDS011;45321;53.200;5.814;2024-01-10T13:54:50;14.18;;;8.45;;
59504;SDS011;45321;53.200;5.814;2024-01-10T13:57:17;14.85;;;8.18;;
59504;SDS011;45321;53.200;5.814;2024-01-10T13:59:46;16.23;;;8.77;;
59504;SDS011;45321;53.200;5.814;2024-01-10T14:02:12;17.10;;;9.27;;
59504;SDS011;45321;53.200;5.814;2024-01-10T14:04:39;15.43;;;8.50;;
59504;SDS011;45321;53.200;5.814;2024-01-10T14:07:05;15.93;;;8.98;;
59504;SDS011;45321;53.200;5.814;2024-01-10T14:09:31;15.25;;;8.88;;
59504;SDS011;45321;53.200;5.814;2024-01-10T14:11:56;15.05;;;8.88;;
59504;SDS011;45321;53.200;5.814;2024-01-10T14:14:22;14.95;;;8.82;;
59504;SDS011;45321;53.200;5.814;2024-01-10T14:16:48;13.73;;;8.68;;
59504;SDS011;45321;53.200;5.814;2024-01-10T14:19:14;13.63;;;8.65;;
59504;SDS011;45321;53.200;5.814;2024-01-10T14:21:42;13.05;;;7.90;;
59504;SDS011;45321;53.200;5.814;2024-01-10T14:24:08;14.07;;;8.57;;
59504;SDS011;45321;53.200;5.814;2024-01-10T14:26:34;15.43;;;9.30;;
59504;SDS011;45321;53.200;5.814;2024-01-10T14:29:06;18.55;;;8.73;;
59504;SDS011;45321;53.200;5.814;2024-01-10T14:31:35;13.87;;;7.20;;
59504;SDS011;45321;53.200;5.814;2024-01-10T14:34:00;11.68;;;7.18;;
59504;SDS011;45321;53.200;5.814;2024-01-10T14:36:29;13.25;;;7.93;;
59504;SDS011;45321;53.200;5.814;2024-01-10T14:38:55;14.02;;;7.95;;
59504;SDS011;45321;53.200;5.814;2024-01-10T14:41:20;13.30;;;7.68;;
59504;SDS011;45321;53.200;5.814;2024-01-10T14:43:46;12.30;;;8.10;;